TUI960 EDDK-LDRI
Flight info
| Callsign | TUI960 |
|---|---|
| Flight time | N/A |
| Altitude | 35000 |
| Route | KUMIK1R KUMIK L603 TESGA DCT ESATI DCT DETEV DCT DINKU M867 XERUM DCT BAVAX DCT RADIZ DCT VEKEN DCT GIRDA |
| Aircraft | B738/M-SDE2E3FGHIRWXY/LB1 |
Departure
| Time | 2026-04-21 14:19 |
|---|---|
| Airport | Cologne Bonn Airport (EDDK) |
Arrival
| Time | N/A |
|---|---|
| Airport | Rijeka Airport (LDRI) |
| Time | Latitude | Longitude | Altitude | Speed | Heading |
|---|---|---|---|---|---|
| 2026-04-21 13:43 | 50.87574 | 7.12038 | 229 ft | 0 kts | 207° |
| 2026-04-21 13:43 | 50.87577 | 7.12041 | 229 ft | 0 kts | 207° |
| 2026-04-21 14:01 | 50.87592 | 7.12053 | 233 ft | 4 kts | 200° |
| 2026-04-21 14:02 | 50.87617 | 7.12062 | 230 ft | 4 kts | 178° |
| 2026-04-21 14:02 | 50.87642 | 7.12053 | 230 ft | 4 kts | 138° |
| 2026-04-21 14:02 | 50.87649 | 7.12040 | 233 ft | 0 kts | 117° |
| 2026-04-21 14:05 | 50.87649 | 7.12042 | 233 ft | 1 kts | 117° |
| 2026-04-21 14:05 | 50.87635 | 7.12082 | 230 ft | 7 kts | 117° |
| 2026-04-21 14:05 | 50.87613 | 7.12151 | 232 ft | 7 kts | 117° |
| 2026-04-21 14:05 | 50.87591 | 7.12219 | 229 ft | 7 kts | 118° |
| 2026-04-21 14:06 | 50.87568 | 7.12286 | 231 ft | 7 kts | 117° |
| 2026-04-21 14:06 | 50.87545 | 7.12359 | 229 ft | 8 kts | 109° |
| 2026-04-21 14:06 | 50.87558 | 7.12439 | 229 ft | 8 kts | 39° |
| 2026-04-21 14:06 | 50.87614 | 7.12472 | 230 ft | 10 kts | 18° |
| 2026-04-21 14:07 | 50.87685 | 7.12508 | 230 ft | 11 kts | 17° |
| 2026-04-21 14:07 | 50.87750 | 7.12557 | 229 ft | 10 kts | 48° |
| 2026-04-21 14:07 | 50.87774 | 7.12662 | 229 ft | 10 kts | 76° |
| 2026-04-21 14:07 | 50.87735 | 7.12747 | 229 ft | 10 kts | 137° |
| 2026-04-21 14:08 | 50.87674 | 7.12836 | 229 ft | 13 kts | 137° |
| 2026-04-21 14:08 | 50.87603 | 7.12939 | 229 ft | 14 kts | 138° |
| 2026-04-21 14:08 | 50.87534 | 7.13039 | 230 ft | 13 kts | 137° |
| 2026-04-21 14:08 | 50.87467 | 7.13133 | 232 ft | 13 kts | 137° |
| 2026-04-21 14:09 | 50.87400 | 7.13232 | 232 ft | 14 kts | 137° |
| 2026-04-21 14:09 | 50.87331 | 7.13333 | 233 ft | 13 kts | 137° |
| 2026-04-21 14:09 | 50.87265 | 7.13429 | 237 ft | 13 kts | 137° |
| 2026-04-21 14:09 | 50.87198 | 7.13526 | 237 ft | 13 kts | 137° |
| 2026-04-21 14:10 | 50.87120 | 7.13640 | 239 ft | 17 kts | 137° |
| 2026-04-21 14:10 | 50.87027 | 7.13774 | 242 ft | 18 kts | 137° |
| 2026-04-21 14:10 | 50.86936 | 7.13907 | 242 ft | 18 kts | 137° |
| 2026-04-21 14:10 | 50.86847 | 7.14034 | 245 ft | 17 kts | 139° |
| 2026-04-21 14:11 | 50.86753 | 7.14140 | 251 ft | 16 kts | 163° |
| 2026-04-21 14:11 | 50.86662 | 7.14242 | 256 ft | 16 kts | 138° |
| 2026-04-21 14:11 | 50.86579 | 7.14362 | 257 ft | 17 kts | 137° |
| 2026-04-21 14:11 | 50.86488 | 7.14495 | 258 ft | 18 kts | 139° |
| 2026-04-21 14:12 | 50.86395 | 7.14629 | 263 ft | 18 kts | 136° |
| 2026-04-21 14:12 | 50.86306 | 7.14759 | 266 ft | 17 kts | 140° |
| 2026-04-21 14:12 | 50.86221 | 7.14880 | 268 ft | 16 kts | 137° |
| 2026-04-21 14:12 | 50.86212 | 7.14892 | 268 ft | 16 kts | 137° |
| 2026-04-21 14:14 | 50.86185 | 7.14932 | 269 ft | 16 kts | 137° |
| 2026-04-21 14:14 | 50.86104 | 7.15049 | 272 ft | 16 kts | 137° |
| 2026-04-21 14:14 | 50.86026 | 7.15163 | 274 ft | 15 kts | 137° |
| 2026-04-21 14:14 | 50.85951 | 7.15272 | 278 ft | 14 kts | 137° |
| 2026-04-21 14:15 | 50.85872 | 7.15385 | 281 ft | 19 kts | 137° |
| 2026-04-21 14:15 | 50.85808 | 7.15478 | 286 ft | 22 kts | 137° |
| 2026-04-21 14:15 | 50.85782 | 7.15515 | 288 ft | 22 kts | 137° |
| 2026-04-21 14:16 | 50.85671 | 7.15681 | 293 ft | 22 kts | 137° |
| 2026-04-21 14:16 | 50.85570 | 7.15825 | 295 ft | 21 kts | 140° |
| 2026-04-21 14:17 | 50.85523 | 7.15891 | 295 ft | 21 kts | 138° |
| 2026-04-21 14:17 | 50.85496 | 7.16017 | 302 ft | 11 kts | 60° |
| 2026-04-21 14:17 | 50.85529 | 7.16078 | 302 ft | 11 kts | 47° |
| 2026-04-21 14:17 | 50.85598 | 7.16198 | 307 ft | 13 kts | 48° |
| 2026-04-21 14:18 | 50.85638 | 7.16267 | 307 ft | 13 kts | 47° |
| 2026-04-21 14:18 | 50.85719 | 7.16281 | 305 ft | 16 kts | 320° |
| 2026-04-21 14:18 | 50.85742 | 7.16247 | 302 ft | 14 kts | 317° |
| 2026-04-21 14:18 | 50.85995 | 7.15881 | 293 ft | 85 kts | 318° |
| 2026-04-21 14:19 | 50.86601 | 7.15004 | 262 ft | 147 kts | 318° |
| 2026-04-21 14:19 | 50.87427 | 7.13780 | 534 ft | 170 kts | 320° |
| 2026-04-21 14:19 | 50.88319 | 7.12450 | 1032 ft | 183 kts | 321° |
| 2026-04-21 14:19 | 50.89249 | 7.11096 | 1743 ft | 183 kts | 323° |
| 2026-04-21 14:20 | 50.90194 | 7.09752 | 2433 ft | 183 kts | 322° |
| 2026-04-21 14:20 | 50.91258 | 7.08628 | 2908 ft | 185 kts | 354° |
| 2026-04-21 14:20 | 50.92424 | 7.09092 | 3578 ft | 175 kts | 38° |
| 2026-04-21 14:20 | 50.93409 | 7.10252 | 4174 ft | 178 kts | 36° |
| 2026-04-21 14:21 | 50.94344 | 7.11580 | 4594 ft | 189 kts | 61° |
| 2026-04-21 14:21 | 50.94788 | 7.13642 | 4791 ft | 206 kts | 71° |
| 2026-04-21 14:21 | 50.95261 | 7.15884 | 4970 ft | 222 kts | 71° |
| 2026-04-21 14:21 | 50.95786 | 7.18234 | 5524 ft | 235 kts | 70° |
| 2026-04-21 14:22 | 50.96406 | 7.20728 | 6165 ft | 249 kts | 63° |
| 2026-04-21 14:22 | 50.97125 | 7.23330 | 6663 ft | 273 kts | 71° |
| 2026-04-21 14:22 | 50.97733 | 7.26186 | 7509 ft | 269 kts | 69° |
| 2026-04-21 14:22 | 50.98342 | 7.28993 | 8198 ft | 265 kts | 71° |
| 2026-04-21 14:23 | 50.99050 | 7.31695 | 8984 ft | 266 kts | 65° |
| 2026-04-21 14:23 | 50.99895 | 7.34327 | 9751 ft | 267 kts | 64° |
| 2026-04-21 14:23 | 51.00752 | 7.36970 | 10448 ft | 270 kts | 64° |
| 2026-04-21 14:23 | 51.01591 | 7.39749 | 10675 ft | 290 kts | 71° |
| 2026-04-21 14:24 | 51.01865 | 7.43018 | 10844 ft | 311 kts | 94° |
| 2026-04-21 14:24 | 51.01378 | 7.46466 | 11085 ft | 328 kts | 106° |
| 2026-04-21 14:24 | 51.00676 | 7.49955 | 11613 ft | 334 kts | 107° |
| 2026-04-21 14:24 | 50.99946 | 7.53484 | 12274 ft | 337 kts | 107° |
| 2026-04-21 14:25 | 50.99227 | 7.56993 | 12973 ft | 339 kts | 106° |
| 2026-04-21 14:25 | 50.98503 | 7.60583 | 13600 ft | 344 kts | 106° |
| 2026-04-21 14:25 | 50.97779 | 7.64219 | 14272 ft | 346 kts | 105° |
| 2026-04-21 14:25 | 50.97056 | 7.67873 | 14919 ft | 349 kts | 105° |
| 2026-04-21 14:26 | 50.96328 | 7.71563 | 15545 ft | 353 kts | 105° |
| 2026-04-21 14:26 | 50.95590 | 7.75298 | 16156 ft | 356 kts | 105° |
| 2026-04-21 14:26 | 50.94845 | 7.79058 | 16795 ft | 359 kts | 106° |
| 2026-04-21 14:26 | 50.93919 | 7.82760 | 17399 ft | 365 kts | 115° |
| 2026-04-21 14:27 | 50.92569 | 7.86252 | 18012 ft | 370 kts | 121° |
| 2026-04-21 14:27 | 50.91139 | 7.89616 | 18583 ft | 374 kts | 121° |
| 2026-04-21 14:27 | 50.89677 | 7.93052 | 19090 ft | 378 kts | 121° |
| 2026-04-21 14:27 | 50.88211 | 7.96520 | 19582 ft | 381 kts | 121° |
| 2026-04-21 14:28 | 50.86750 | 8.00003 | 20075 ft | 385 kts | 121° |
| 2026-04-21 14:28 | 50.85267 | 8.03551 | 20675 ft | 388 kts | 121° |
| 2026-04-21 14:28 | 50.83774 | 8.07117 | 21291 ft | 390 kts | 121° |
| 2026-04-21 14:28 | 50.82259 | 8.10726 | 21775 ft | 396 kts | 121° |
| 2026-04-21 14:29 | 50.80722 | 8.14364 | 22340 ft | 399 kts | 121° |
| 2026-04-21 14:29 | 50.79167 | 8.18040 | 22891 ft | 403 kts | 121° |
| 2026-04-21 14:29 | 50.77598 | 8.21744 | 23432 ft | 407 kts | 121° |
| 2026-04-21 14:29 | 50.76016 | 8.25477 | 23891 ft | 412 kts | 122° |
| 2026-04-21 14:30 | 50.74438 | 8.29198 | 24309 ft | 415 kts | 122° |
| 2026-04-21 14:30 | 50.72824 | 8.32996 | 24722 ft | 418 kts | 121° |
| 2026-04-21 14:30 | 50.71173 | 8.36800 | 25171 ft | 422 kts | 124° |
| 2026-04-21 14:30 | 50.69185 | 8.40249 | 25573 ft | 429 kts | 135° |
| 2026-04-21 14:31 | 50.66821 | 8.43170 | 26039 ft | 434 kts | 145° |
| 2026-04-21 14:31 | 50.64184 | 8.45501 | 26590 ft | 435 kts | 150° |
| 2026-04-21 14:31 | 50.61483 | 8.47718 | 26951 ft | 439 kts | 150° |
| 2026-04-21 14:31 | 50.58753 | 8.49952 | 27264 ft | 444 kts | 150° |
| 2026-04-21 14:32 | 50.56010 | 8.52222 | 27615 ft | 447 kts | 150° |
| 2026-04-21 14:32 | 50.53233 | 8.54548 | 27716 ft | 457 kts | 150° |
| 2026-04-21 14:32 | 50.50419 | 8.56919 | 28022 ft | 461 kts | 150° |
| 2026-04-21 14:32 | 50.47592 | 8.59300 | 28455 ft | 462 kts | 150° |